createdAt,value
2022-08-16T00:01:41.006Z,80.43
2022-08-16T00:04:13.075Z,80.97
2022-08-16T00:06:44.804Z,81.97
2022-08-16T00:09:16.603Z,82.27
2022-08-16T00:11:52.705Z,84.00
2022-08-16T00:14:31.056Z,81.93
2022-08-16T00:17:16.084Z,82.77
2022-08-16T00:19:53.592Z,77.83
2022-08-16T00:22:27.962Z,80.13
2022-08-16T00:24:59.690Z,85.20
2022-08-16T00:27:31.309Z,81.73
2022-08-16T00:30:19.083Z,83.47
2022-08-16T00:32:59.880Z,84.47
2022-08-16T00:35:37.392Z,83.45
2022-08-16T00:38:41.262Z,79.63
2022-08-16T00:41:01.949Z,82.13
2022-08-16T00:43:43.368Z,80.47
2022-08-16T00:46:35.743Z,85.07
2022-08-16T00:49:17.587Z,80.57
2022-08-16T00:51:55.195Z,82.30
2022-08-16T00:54:32.972Z,76.87
2022-08-16T00:57:05.770Z,80.43
2022-08-16T00:59:54.603Z,78.47
2022-08-16T01:02:33.111Z,79.23
2022-08-16T01:05:11.065Z,74.80
2022-08-16T01:07:52.027Z,83.47
2022-08-16T01:10:32.781Z,76.90
2022-08-16T01:13:12.488Z,81.70
2022-08-16T01:15:52.814Z,75.30
2022-08-16T01:18:40.598Z,84.70
2022-08-16T01:21:33.653Z,82.00
2022-08-16T01:24:52.688Z,78.67
2022-08-16T01:27:27.238Z,81.40
2022-08-16T01:30:04.205Z,80.83
2022-08-16T01:32:42.302Z,79.17
2022-08-16T01:35:21.264Z,80.23
2022-08-16T01:37:56.740Z,77.47
2022-08-16T01:40:32.472Z,77.47
2022-08-16T01:43:06.164Z,80.28
2022-08-16T01:45:42.172Z,74.40
2022-08-16T01:48:19.693Z,78.30
2022-08-16T01:51:16.476Z,77.60
2022-08-16T01:53:55.382Z,78.67
2022-08-16T01:56:34.664Z,77.70
2022-08-16T01:59:15.822Z,80.68
2022-08-16T02:01:52.813Z,82.93
2022-08-16T02:04:48.710Z,82.07
2022-08-16T02:07:27.713Z,80.63
2022-08-16T02:10:02.388Z,76.53
2022-08-16T02:12:51.001Z,77.35
2022-08-16T02:15:28.585Z,78.50
2022-08-16T02:20:39.504Z,80.33
2022-08-16T02:23:14.278Z,79.53
2022-08-16T02:25:52.675Z,79.13
2022-08-16T02:28:26.279Z,79.43
2022-08-16T02:31:02.389Z,80.93
2022-08-16T02:33:43.500Z,79.40
2022-08-16T02:36:47.795Z,78.00
2022-08-16T02:39:14.813Z,74.93
2022-08-16T02:41:53.302Z,76.20
2022-08-16T02:44:27.007Z,79.57
2022-08-16T02:47:00.608Z,77.47
2022-08-16T02:49:59.146Z,77.68
2022-08-16T02:52:29.503Z,82.40
2022-08-16T02:55:08.327Z,80.27
2022-08-16T02:57:42.539Z,78.73
2022-08-16T03:00:33.754Z,79.10
2022-08-16T03:03:10.285Z,77.50
2022-08-16T03:05:42.654Z,81.70
2022-08-16T03:08:51.048Z,82.27
2022-08-16T03:11:06.648Z,82.53
2022-08-16T03:13:53.289Z,81.60
2022-08-16T03:16:37.893Z,83.07
2022-08-16T03:19:11.525Z,85.00
2022-08-16T03:21:44.044Z,83.60
2022-08-16T03:24:28.756Z,82.33
2022-08-16T03:27:04.017Z,82.37
2022-08-16T03:29:39.674Z,85.77
2022-08-16T03:32:26.682Z,83.00
2022-08-16T03:34:58.454Z,82.50
2022-08-16T03:37:30.253Z,80.87
2022-08-16T03:40:31.601Z,82.33
2022-08-16T03:43:20.688Z,82.67
2022-08-16T03:45:57.288Z,83.00
2022-08-16T03:48:39.888Z,81.43
2022-08-16T03:51:23.693Z,81.40
2022-08-16T03:54:02.068Z,81.40
2022-08-16T03:59:11.109Z,82.73
2022-08-16T04:01:53.804Z,85.00
2022-08-16T04:04:33.401Z,83.65
2022-08-16T04:07:07.856Z,80.13
2022-08-16T04:09:43.860Z,83.13
2022-08-16T04:12:53.148Z,81.53
2022-08-16T04:15:10.197Z,84.40
2022-08-16T04:17:47.804Z,82.30
2022-08-16T04:20:31.449Z,82.40
2022-08-16T04:23:09.082Z,82.47
2022-08-16T04:25:43.513Z,81.97
2022-08-16T04:28:29.268Z,80.43
2022-08-16T04:31:14.322Z,81.00
2022-08-16T04:33:50.762Z,83.20
2022-08-16T04:36:27.431Z,82.50
2022-08-16T04:38:59.402Z,79.77
2022-08-16T04:41:37.559Z,82.47
2022-08-16T04:44:52.794Z,81.10
2022-08-16T04:47:21.432Z,81.27
2022-08-16T04:49:56.638Z,81.50
2022-08-16T04:52:34.488Z,88.10
2022-08-16T04:55:16.188Z,85.23
2022-08-16T04:57:54.316Z,84.43
2022-08-16T05:00:34.147Z,84.87
2022-08-16T05:03:22.158Z,84.97
2022-08-16T05:06:05.294Z,86.60
2022-08-16T05:08:39.403Z,86.70
2022-08-16T05:11:31.912Z,90.00
2022-08-16T05:14:06.942Z,86.30
2022-08-16T05:16:41.066Z,86.53
2022-08-16T05:19:17.280Z,89.10
2022-08-16T05:22:18.133Z,89.87
2022-08-16T05:24:55.645Z,88.90
2022-08-16T05:27:27.689Z,89.13
2022-08-16T05:30:04.871Z,82.53
2022-08-16T05:32:52.447Z,88.90
2022-08-16T05:35:30.197Z,84.63
2022-08-16T05:38:33.222Z,86.20
2022-08-16T05:41:07.339Z,91.43
2022-08-16T05:43:47.688Z,92.47
2022-08-16T05:46:37.005Z,91.27
2022-08-16T05:49:22.462Z,97.78
2022-08-16T05:52:00.090Z,94.97
2022-08-16T05:54:33.208Z,97.32
2022-08-16T05:57:07.852Z,103.20
2022-08-16T05:59:47.303Z,98.97
2022-08-16T06:02:24.650Z,99.90
2022-08-16T06:05:04.207Z,100.20
2022-08-16T06:07:36.004Z,104.15
2022-08-16T06:10:32.483Z,106.70
2022-08-16T06:13:06.615Z,105.40
2022-08-16T06:15:41.590Z,106.35
2022-08-16T06:18:14.122Z,103.07
2022-08-16T06:20:55.374Z,108.67
2022-08-16T06:23:28.470Z,104.87
2022-08-16T06:26:08.330Z,104.87
2022-08-16T06:28:47.656Z,106.60
2022-08-16T06:31:27.064Z,115.60
2022-08-16T06:34:01.937Z,108.20
2022-08-16T06:36:59.371Z,115.07
2022-08-16T06:39:32.048Z,114.60
2022-08-16T06:42:10.168Z,114.03
2022-08-16T06:45:07.938Z,112.97
2022-08-16T06:47:53.633Z,115.07
2022-08-16T06:50:30.161Z,116.10
2022-08-16T06:53:08.919Z,117.23
2022-08-16T06:55:46.939Z,115.37
2022-08-16T06:58:31.416Z,114.23
2022-08-16T07:01:15.029Z,117.23
2022-08-16T07:03:55.884Z,116.13
2022-08-16T07:06:33.813Z,114.23
2022-08-16T07:09:13.210Z,119.70
2022-08-16T07:11:51.845Z,119.17
2022-08-16T07:14:35.616Z,112.97
2022-08-16T07:17:11.562Z,120.70
2022-08-16T07:20:03.865Z,117.17
2022-08-16T07:22:53.102Z,115.93
2022-08-16T07:25:40.283Z,121.63
2022-08-16T07:28:20.751Z,120.25
2022-08-16T07:33:52.005Z,116.37
2022-08-16T07:36:25.689Z,118.70
2022-08-16T07:38:58.143Z,120.73
2022-08-16T07:41:32.419Z,122.53
2022-08-16T07:44:16.108Z,120.37
2022-08-16T07:46:48.602Z,121.67
2022-08-16T07:49:32.327Z,123.93
2022-08-16T07:52:20.463Z,127.97
2022-08-16T07:54:54.059Z,125.13
2022-08-16T07:57:27.637Z,127.65
2022-08-16T08:00:00.634Z,130.37
2022-08-16T08:02:34.502Z,121.77
2022-08-16T08:05:09.155Z,127.18
2022-08-16T08:07:45.313Z,122.87
2022-08-16T08:10:29.537Z,121.33
2022-08-16T08:13:04.344Z,124.43
2022-08-16T08:15:37.038Z,124.47
2022-08-16T08:18:29.352Z,119.50
2022-08-16T08:21:03.478Z,124.30
2022-08-16T08:23:42.663Z,115.83
2022-08-16T08:26:17.601Z,119.30
2022-08-16T08:28:49.878Z,121.03
2022-08-16T08:31:22.530Z,121.83
2022-08-16T08:33:56.767Z,117.97
2022-08-16T08:36:34.143Z,118.93
2022-08-16T08:39:20.934Z,120.32
2022-08-16T08:41:53.750Z,123.20
2022-08-16T08:44:30.670Z,123.07
2022-08-16T08:47:12.250Z,123.15
2022-08-16T08:49:46.164Z,123.23
2022-08-16T08:52:35.137Z,115.25
2022-08-16T08:55:14.145Z,117.90
2022-08-16T08:57:47.910Z,118.43
2022-08-16T09:00:50.909Z,118.25
2022-08-16T09:03:24.677Z,121.13
2022-08-16T09:06:01.020Z,115.35
2022-08-16T09:08:35.622Z,120.10
2022-08-16T09:11:15.893Z,120.35
2022-08-16T09:13:51.587Z,122.63
2022-08-16T09:17:00.982Z,118.55
2022-08-16T09:19:17.866Z,118.13
2022-08-16T09:22:05.031Z,120.57
2022-08-16T09:24:51.946Z,118.50
2022-08-16T09:27:28.540Z,116.63
2022-08-16T09:30:34.728Z,113.13
2022-08-16T09:33:08.393Z,116.15
2022-08-16T09:35:42.722Z,118.13
2022-08-16T09:41:14.773Z,119.65
2022-08-16T09:43:58.837Z,120.75
2022-08-16T09:46:45.947Z,113.70
2022-08-16T09:49:21.674Z,115.25
2022-08-16T09:51:54.770Z,112.82
2022-08-16T09:57:04.925Z,118.13
2022-08-16T09:59:38.857Z,116.68
2022-08-16T10:02:25.922Z,112.35
2022-08-16T10:04:59.607Z,112.82
2022-08-16T10:07:38.300Z,111.93
2022-08-16T10:10:30.547Z,117.35
2022-08-16T10:13:12.183Z,112.10
2022-08-16T10:15:55.669Z,111.40
2022-08-16T10:19:00.222Z,111.28
2022-08-16T10:21:22.634Z,112.45
2022-08-16T10:23:55.677Z,111.70
2022-08-16T10:27:17.613Z,112.60
2022-08-16T10:29:23.090Z,113.35
2022-08-16T10:31:54.692Z,113.88
2022-08-16T10:34:32.475Z,113.70
2022-08-16T10:37:04.585Z,112.20
2022-08-16T10:39:41.460Z,110.15
2022-08-16T10:42:14.430Z,113.82
2022-08-16T10:44:53.749Z,112.38
2022-08-16T10:47:26.639Z,114.28
2022-08-16T10:50:03.466Z,111.32
2022-08-16T10:58:11.712Z,111.93
2022-08-16T11:00:43.625Z,113.53
2022-08-16T11:06:12.275Z,113.43
2022-08-16T11:11:19.627Z,112.38
2022-08-16T11:19:23.020Z,111.90
2022-08-16T11:25:11.491Z,114.80
2022-08-16T11:27:38.809Z,111.43
2022-08-16T11:30:19.859Z,113.53
2022-08-16T11:32:51.898Z,110.18
2022-08-16T11:38:51.638Z,115.72
2022-08-16T11:41:16.871Z,114.25
2022-08-16T11:43:48.436Z,115.35
2022-08-16T11:46:45.321Z,114.82
2022-08-16T11:49:14.242Z,112.05
2022-08-16T11:51:46.126Z,114.88
2022-08-16T11:54:20.574Z,113.93
2022-08-16T11:56:57.103Z,113.57
2022-08-16T11:59:29.513Z,114.03
2022-08-16T12:02:04.428Z,111.93
2022-08-16T12:04:54.287Z,116.25
2022-08-16T12:07:25.927Z,117.30
2022-08-16T12:09:57.534Z,114.07
2022-08-16T12:12:29.151Z,117.10
2022-08-16T12:15:00.957Z,111.45
2022-08-16T12:17:33.150Z,112.40
2022-08-16T12:20:15.525Z,109.55
2022-08-16T12:22:51.213Z,114.90
2022-08-16T12:25:25.876Z,111.22
2022-08-16T12:27:58.238Z,109.38
2022-08-16T12:30:38.747Z,107.22
2022-08-16T12:33:13.543Z,109.97
2022-08-16T12:35:48.804Z,108.63
2022-08-16T12:38:41.338Z,108.55
2022-08-16T12:41:13.557Z,110.07
2022-08-16T12:43:45.429Z,109.80
2022-08-16T12:46:17.179Z,105.70
2022-08-16T12:48:58.019Z,113.47
2022-08-16T12:51:58.175Z,113.53
2022-08-16T12:54:28.874Z,112.10
2022-08-16T12:57:01.303Z,114.28
2022-08-16T12:59:35.142Z,112.15
2022-08-16T13:02:12.691Z,114.13
2022-08-16T13:05:01.827Z,113.13
2022-08-16T13:07:37.487Z,111.47
2022-08-16T13:10:20.859Z,110.78
2022-08-16T13:13:05.909Z,114.85
2022-08-16T13:18:34.119Z,107.85
2022-08-16T13:21:08.214Z,114.00
2022-08-16T13:23:43.712Z,112.45
2022-08-16T13:26:17.774Z,111.45
2022-08-16T13:28:49.553Z,114.38
2022-08-16T13:31:21.877Z,113.50
2022-08-16T13:33:58.537Z,115.68
2022-08-16T13:36:48.642Z,116.80
2022-08-16T13:39:23.271Z,111.80
2022-08-16T13:41:56.170Z,108.90
2022-08-16T13:44:48.609Z,112.55
2022-08-16T13:47:21.742Z,111.68
2022-08-16T13:49:54.931Z,113.72
2022-08-16T13:52:29.824Z,109.85
2022-08-16T13:55:17.808Z,108.18
2022-08-16T13:58:35.411Z,113.55
2022-08-16T14:00:41.526Z,114.90
2022-08-16T14:03:13.209Z,117.75
2022-08-16T14:05:51.445Z,111.47
2022-08-16T14:08:27.157Z,111.97
2022-08-16T14:10:59.475Z,113.22
2022-08-16T14:13:33.347Z,111.22
2022-08-16T14:16:12.628Z,114.30
2022-08-16T14:18:55.643Z,112.05
2022-08-16T14:21:27.605Z,113.88
2022-08-16T14:24:12.868Z,110.22
2022-08-16T14:27:04.422Z,111.85
2022-08-16T14:29:38.335Z,115.88
2022-08-16T14:32:13.134Z,113.70
2022-08-16T14:35:18.401Z,112.57
2022-08-16T14:37:52.725Z,110.03
2022-08-16T14:40:29.648Z,109.03
2022-08-16T14:43:05.561Z,113.60
2022-08-16T14:45:42.148Z,112.22
2022-08-16T14:48:13.826Z,111.38
2022-08-16T14:50:45.432Z,110.53
2022-08-16T14:53:17.232Z,112.13
2022-08-16T14:55:48.871Z,113.47
2022-08-16T14:58:34.662Z,114.47
2022-08-16T15:01:10.213Z,111.00
2022-08-16T15:03:44.979Z,114.25
2022-08-16T15:06:16.780Z,109.20
2022-08-16T15:08:48.446Z,110.00
2022-08-16T15:11:22.846Z,119.07
2022-08-16T15:13:55.000Z,111.43
2022-08-16T15:16:28.922Z,110.20
2022-08-16T15:19:01.241Z,110.23
2022-08-16T15:21:34.186Z,116.18
2022-08-16T15:24:06.399Z,110.13
2022-08-16T15:26:49.678Z,112.45
2022-08-16T15:29:21.530Z,108.40
2022-08-16T15:32:01.011Z,109.72
2022-08-16T15:34:33.151Z,110.70
2022-08-16T15:37:05.342Z,113.40
2022-08-16T15:39:39.665Z,108.57
2022-08-16T15:42:27.075Z,109.00
2022-08-16T15:44:59.154Z,108.10
2022-08-16T15:47:33.387Z,111.03
2022-08-16T15:50:06.703Z,108.50
2022-08-16T15:52:45.138Z,110.70
2022-08-16T15:55:34.765Z,106.67
2022-08-16T15:58:38.180Z,104.73
2022-08-16T16:00:59.618Z,114.10
2022-08-16T16:03:34.547Z,109.00
2022-08-16T16:06:06.642Z,112.17
2022-08-16T16:08:41.694Z,117.57
2022-08-16T16:11:14.546Z,109.17
2022-08-16T16:13:46.238Z,112.67
2022-08-16T16:16:19.666Z,109.47
2022-08-16T16:18:52.914Z,110.60
2022-08-16T16:21:25.738Z,110.30
2022-08-16T16:23:57.984Z,111.20
2022-08-16T16:26:33.124Z,108.33
2022-08-16T16:29:07.599Z,111.43
2022-08-16T16:31:59.830Z,106.60
2022-08-16T16:34:35.473Z,111.77
2022-08-16T16:37:10.131Z,112.03
2022-08-16T16:39:42.227Z,108.10
2022-08-16T16:42:29.209Z,115.37
2022-08-16T16:45:04.890Z,111.83
2022-08-16T16:47:41.414Z,112.50
2022-08-16T16:52:50.514Z,109.82
2022-08-16T16:55:25.935Z,111.30
2022-08-16T16:58:18.179Z,109.80
2022-08-16T17:01:07.494Z,108.87
2022-08-16T17:03:39.113Z,109.53
2022-08-16T17:06:10.891Z,109.60
2022-08-16T17:08:43.086Z,111.40
2022-08-16T17:11:16.163Z,109.70
2022-08-16T17:13:49.982Z,109.57
2022-08-16T17:16:23.040Z,107.90
2022-08-16T17:19:17.516Z,106.20
2022-08-16T17:21:50.727Z,105.73
2022-08-16T17:24:33.059Z,106.97
2022-08-16T17:27:11.933Z,110.57
2022-08-16T17:29:51.378Z,108.03
2022-08-16T17:32:33.625Z,109.67
2022-08-16T17:35:24.229Z,106.90
2022-08-16T17:38:09.185Z,106.27
2022-08-16T17:40:58.191Z,109.00
2022-08-16T17:43:33.549Z,105.53
2022-08-16T17:46:06.875Z,107.60
2022-08-16T17:48:58.483Z,104.63
2022-08-16T17:51:30.182Z,106.87
2022-08-16T17:54:03.484Z,105.40
2022-08-16T17:56:35.212Z,108.78
2022-08-16T17:59:06.883Z,107.97
2022-08-16T18:01:38.577Z,107.77
2022-08-16T18:04:10.316Z,107.17
2022-08-16T18:06:41.946Z,102.03
2022-08-16T18:09:14.944Z,108.43
2022-08-16T18:11:46.900Z,106.25
2022-08-16T18:14:19.332Z,109.33
2022-08-16T18:17:10.911Z,105.00
2022-08-16T18:19:42.599Z,105.83
2022-08-16T18:22:30.257Z,106.40
2022-08-16T18:25:05.270Z,108.60
2022-08-16T18:27:38.590Z,105.03
2022-08-16T18:30:10.729Z,106.93
2022-08-16T18:32:50.406Z,108.57
2022-08-16T18:35:22.287Z,103.57
2022-08-16T18:37:53.981Z,106.53
2022-08-16T18:40:26.185Z,110.90
2022-08-16T18:43:05.933Z,110.60
2022-08-16T18:45:39.730Z,106.20
2022-08-16T18:48:13.485Z,105.75
2022-08-16T18:51:03.947Z,103.93
2022-08-16T18:53:38.843Z,107.80
2022-08-16T18:56:11.887Z,102.80
2022-08-16T18:58:43.496Z,102.97
2022-08-16T19:01:15.228Z,102.27
2022-08-16T19:03:46.855Z,106.20
2022-08-16T19:06:18.566Z,105.30
2022-08-16T19:08:50.245Z,101.40
2022-08-16T19:11:23.513Z,105.97
2022-08-16T19:13:55.223Z,103.15
2022-08-16T19:16:27.064Z,105.27
2022-08-16T19:18:58.686Z,108.27
2022-08-16T19:21:30.296Z,103.37
2022-08-16T19:24:02.057Z,104.33
2022-08-16T19:26:35.215Z,106.10
2022-08-16T19:29:08.381Z,103.23
2022-08-16T19:31:40.335Z,105.73
2022-08-16T19:34:13.200Z,104.77
2022-08-16T19:36:44.969Z,103.27
2022-08-16T19:39:16.646Z,99.37
2022-08-16T19:41:53.594Z,105.20
2022-08-16T19:44:27.179Z,102.87
2022-08-16T19:46:58.958Z,105.15
2022-08-16T19:49:30.543Z,103.87
2022-08-16T19:52:19.353Z,105.73
2022-08-16T19:54:54.146Z,98.60
2022-08-16T19:57:26.142Z,98.70
2022-08-16T20:00:01.732Z,99.90
2022-08-16T20:02:47.176Z,99.83
2022-08-16T20:05:28.249Z,104.03
2022-08-16T20:08:04.571Z,106.43
2022-08-16T20:10:36.905Z,101.60
2022-08-16T20:13:20.647Z,98.80
2022-08-16T20:15:52.887Z,100.40
2022-08-16T20:18:25.706Z,100.83
2022-08-16T20:20:57.386Z,101.50
2022-08-16T20:23:29.158Z,99.83
2022-08-16T20:26:00.788Z,100.23
2022-08-16T20:28:52.834Z,98.05
2022-08-16T20:31:26.102Z,101.40
2022-08-16T20:33:57.768Z,102.07
2022-08-16T20:36:29.876Z,101.07
2022-08-16T20:39:04.876Z,102.07
2022-08-16T20:41:36.503Z,103.47
2022-08-16T20:44:10.254Z,100.70
2022-08-16T20:46:41.906Z,100.28
2022-08-16T20:49:13.529Z,101.67
2022-08-16T20:51:49.947Z,98.03
2022-08-16T20:54:23.018Z,100.40
2022-08-16T20:56:54.682Z,101.00
2022-08-16T20:59:26.541Z,101.20
2022-08-16T21:01:58.222Z,94.40
2022-08-16T21:04:29.909Z,98.37
2022-08-16T21:07:01.657Z,97.10
2022-08-16T21:09:35.829Z,98.70
2022-08-16T21:14:44.980Z,100.10
2022-08-16T21:17:17.203Z,102.03
2022-08-16T21:19:48.870Z,102.53
2022-08-16T21:22:22.937Z,100.17
2022-08-16T21:27:30.851Z,96.93
2022-08-16T21:30:02.610Z,97.83
2022-08-16T21:32:35.713Z,99.73
2022-08-16T21:35:12.653Z,100.13
2022-08-16T21:38:00.999Z,97.03
2022-08-16T21:40:37.831Z,97.73
2022-08-16T21:43:17.165Z,97.33
2022-08-16T21:45:54.182Z,100.47
2022-08-16T21:48:34.697Z,97.07
2022-08-16T21:51:13.261Z,97.53
2022-08-16T21:53:44.905Z,97.23
2022-08-16T21:56:17.442Z,93.00
2022-08-16T21:58:53.109Z,92.33
2022-08-16T22:01:26.430Z,92.47
2022-08-16T22:04:35.736Z,97.53
2022-08-16T22:06:51.070Z,96.17
2022-08-16T22:09:22.936Z,91.77
2022-08-16T22:11:54.562Z,93.00
2022-08-16T22:14:26.115Z,98.63
2022-08-16T22:16:57.939Z,91.57
2022-08-16T22:19:29.986Z,96.77
2022-08-16T22:22:01.698Z,94.67
2022-08-16T22:24:33.444Z,92.40
2022-08-16T22:27:05.323Z,90.77
2022-08-16T22:29:39.458Z,89.30
2022-08-16T22:32:13.878Z,85.23
2022-08-16T22:34:45.517Z,92.37
2022-08-16T22:37:17.142Z,90.07
2022-08-16T22:39:48.782Z,89.97
2022-08-16T22:42:20.435Z,89.20
2022-08-16T22:44:52.502Z,91.90
2022-08-16T22:47:25.735Z,89.97
2022-08-16T22:49:57.297Z,88.63
2022-08-16T22:52:36.840Z,91.03
2022-08-16T22:55:20.786Z,89.57
2022-08-16T22:57:53.586Z,85.33
2022-08-16T23:00:30.955Z,84.80
2022-08-16T23:03:14.804Z,93.17
2022-08-16T23:05:55.706Z,87.10
2022-08-16T23:08:38.128Z,88.33
2022-08-16T23:11:22.451Z,85.38
2022-08-16T23:13:56.200Z,91.00
2022-08-16T23:16:33.311Z,86.97
2022-08-16T23:19:08.930Z,87.63
2022-08-16T23:21:44.367Z,88.53
2022-08-16T23:24:19.206Z,91.13
2022-08-16T23:26:50.898Z,92.73
2022-08-16T23:29:25.366Z,90.23
2022-08-16T23:32:10.680Z,88.80
2022-08-16T23:34:42.363Z,87.68
2022-08-16T23:37:13.953Z,85.73
2022-08-16T23:39:45.612Z,90.77
2022-08-16T23:42:52.089Z,83.90
2022-08-16T23:45:09.237Z,87.63
2022-08-16T23:47:40.818Z,89.43
2022-08-16T23:50:12.416Z,87.10
2022-08-16T23:53:05.983Z,88.70
2022-08-16T23:55:41.441Z,91.07
2022-08-16T23:58:15.793Z,85.03
